METAR Data
IDs: Format: Raw Decoded Include TAF

Data at: 0151 UTC 25 Mar 2019

KCAV 250135Z AUTO 02009KT 10SM OVC033 07/06 A3013 RMK AO2 PWINO
KCAV 250115Z AUTO 02009KT 10SM OVC030 07/06 A3012 RMK AO2 PWINO
KCAV 250055Z AUTO 36005KT 10SM OVC029 07/06 A3012 RMK AO2 PWINO
KCAV 250035Z AUTO 03006KT 10SM OVC027 08/06 A3011 RMK AO2 PWINO
KCAV 250015Z AUTO 05008KT 10SM OVC026 08/06 A3010 RMK AO2 PWINO
KCAV 242355Z AUTO 04008KT 10SM OVC024 08/07 A3009 RMK AO2 PWINO
KCAV 242335Z AUTO 04009KT 10SM OVC021 08/07 A3009 RMK AO2 PWINO
KCAV 242315Z AUTO 06008KT 10SM OVC017 08/08 A3009 RMK AO2 PWINO
KCAV 242255Z AUTO 06011G16KT 9SM OVC015 09/08 A3008 RMK AO2 PWINO
KCAV 242235Z AUTO 04010KT 10SM OVC015 09/08 A3007 RMK AO2 PWINO
KCAV 242215Z AUTO 05012KT 10SM OVC015 09/08 A3007 RMK AO2 PWINO
KCAV 242155Z AUTO 06011KT 9SM OVC015 09/08 A3006 RMK AO2 PWINO
KCAV 242135Z AUTO 06011G16KT 9SM OVC013 09/08 A3005 RMK AO2 PWINO
KCAV 242115Z AUTO 05011KT 9SM OVC015 09/08 A3005 RMK AO2 PWINO
KCAV 242055Z AUTO 05009KT 9SM BKN016 BKN024 OVC055 08/08 A3004 RMK AO2 PWINO
KCAV 242035Z AUTO 06009KT 7SM SCT015 BKN024 OVC055 08/08 A3004 RMK AO2 PWINO
KCAV 242015Z AUTO 06010KT 5SM BR SCT007 BKN018 OVC041 07/07 A3004 RMK AO2 PWINO
KCAV 241955Z AUTO 05010KT 4SM BR FEW006 SCT012 BKN016 07/07 A3004 RMK AO2 PWINO
KCAV 241935Z AUTO 06010KT 3SM BR SCT006 SCT009 BKN014 07/07 A3004 RMK AO2 PWINO
KCAV 241915Z AUTO 05011KT 1 1/2SM BR BKN006 OVC011 07/07 A3004 RMK AO2 PWINO
KCAV 241855Z AUTO 04011KT 1SM BR BKN004 BKN009 07/07 A3004 RMK AO2 PWINO
KCAV 241835Z AUTO 05009G15KT 1 1/4SM BR OVC006 07/07 A3004 RMK AO2 PWINO
KCAV 241815Z AUTO 04012KT 3SM BR OVC006 07/07 A3004 RMK AO2 PWINO
KCAV 241755Z AUTO 05009KT 2 1/2SM BR OVC004 07/06 A3004 RMK AO2 PWINO
KCAV 241735Z AUTO 05009KT 3/4SM BR OVC003 06/06 A3004 RMK AO2 PWINO
KCAV 241715Z AUTO 08008KT 1/2SM BR OVC003 06/06 A3004 RMK AO2 PWINO
KCAV 241655Z AUTO 08010KT 1/4SM FG OVC003 06/05 A3004 RMK AO2 PWINO
KCAV 241635Z AUTO 08011KT 1/4SM FG OVC003 05/05 A3004 RMK AO2 PWINO
KCAV 241615Z AUTO 08011KT 3/4SM BR OVC003 05/05 A3004 RMK AO2 PWINO
KCAV 241555Z AUTO 07011KT 1 3/4SM BR OVC003 05/05 A3004 RMK AO2 PWINO
KCAV 241535Z AUTO 07011KT 1 1/2SM BR OVC003 05/05 A3003 RMK AO2 PWINO
KCAV 241515Z AUTO 06008KT 1 1/4SM BR OVC003 05/05 A3003 RMK AO2 PWINO
KCAV 241455Z AUTO 06011KT 1/4SM FG OVC003 05/05 A3003 RMK AO2 PWINO
KCAV 241435Z AUTO 07009KT 1SM BR OVC003 05/05 A3003 RMK AO2 PWINO
KCAV 241415Z AUTO 07010KT 1 1/4SM BR OVC003 05/05 A3003 RMK AO2 PWINO
KCAV 241355Z AUTO 08009KT 2 1/2SM BR OVC003 05/05 A3003 RMK AO2 PWINO
KCAV 241335Z AUTO 07007KT 2SM BR BKN003 BKN014 05/05 A3002 RMK AO2 PWINO
KCAV 241315Z AUTO 09006KT 2SM BR FEW005 BKN014 05/05 A3003 RMK AO2 PWINO
KCAV 241255Z AUTO 09007KT 2SM BR OVC014 05/05 A3002 RMK AO2 P0002 PWINO
KCAV 241235Z AUTO 09007KT 3SM BR OVC013 05/05 A3002 RMK AO2 PWINO
KCAV 241215Z AUTO 09006KT 5SM BR OVC016 05/05 A3002 RMK AO2 PWINO
KCAV 241155Z AUTO 10007KT 3SM BR FEW004 OVC015 05/05 A3002 RMK AO2 P0004 PWINO
KCAV 241135Z AUTO 11010G15KT 2SM BR BKN013 OVC017 05/05 A3002 RMK AO2 PWINO
KCAV 241115Z AUTO 11009KT 1 3/4SM BR OVC017 05/05 A3001 RMK AO2 PWINO
KCAV 241055Z AUTO 09009KT 1 1/2SM BR FEW003 SCT007 OVC016 04/04 A3002 RMK AO2 P0004 PWINO
KCAV 241035Z AUTO 08009KT 2SM BR FEW003 OVC014 04/04 A3002 RMK AO2 PWINO
KCAV 241015Z AUTO 08010KT 3SM BR SCT004 SCT009 OVC013 04/04 A3002 RMK AO2 PWINO
KCAV 240955Z AUTO 08009KT 2SM BR FEW004 FEW010 OVC014 04/04 A3002 RMK AO2 P0002 PWINO
KCAV 240935Z AUTO 08009KT 4SM BR OVC016 04/04 A3003 RMK AO2 PWINO
KCAV 240915Z AUTO 08008KT 5SM BR OVC015 05/04 A3003 RMK AO2 PWINO
KCAV 240855Z AUTO 08008KT 4SM BR OVC014 05/04 A3004 RMK AO2 P0003 PWINO
KCAV 240835Z AUTO 09007KT 3SM BR OVC015 05/04 A3004 RMK AO2 PWINO
KCAV 240815Z AUTO 10007KT 4SM BR BKN015 OVC019 05/04 A3005 RMK AO2 PWINO
KCAV 240755Z AUTO 08005KT 6SM BR SCT017 OVC024 05/04 A3006 RMK AO2 PWINO
KCAV 240735Z AUTO 09007KT 10SM OVC026 06/03 A3006 RMK AO2 PWINO
KCAV 240715Z AUTO 10008KT 10SM BKN027 OVC037 06/03 A3006 RMK AO2 PWINO
KCAV 240655Z AUTO 09010KT 10SM OVC039 06/03 A3005 RMK AO2 PWINO
KCAV 240635Z AUTO 09009KT 10SM BKN041 OVC047 06/03 A3005 RMK AO2 PWINO
KCAV 240615Z AUTO 10010KT 10SM BKN041 OVC050 06/03 A3006 RMK AO2 PWINO
KCAV 240555Z AUTO 10008KT 10SM SCT042 OVC055 06/03 A3006 RMK AO2 PWINO
KCAV 240535Z AUTO 10008KT 10SM SCT040 OVC060 06/03 A3007 RMK AO2 PWINO
KCAV 240515Z AUTO 10009KT 10SM OVC037 06/03 A3007 RMK AO2 PWINO
KCAV 240455Z AUTO 11008KT 10SM BKN027 OVC035 07/03 A3008 RMK AO2 PWINO
KCAV 240435Z AUTO 12009KT 10SM BKN027 OVC070 07/03 A3007 RMK AO2 PWINO
KCAV 240415Z AUTO 12011KT 10SM FEW029 SCT060 OVC070 07/03 A3008 RMK AO2 PWINO
KCAV 240355Z AUTO 12010KT 10SM OVC075 07/03 A3008 RMK AO2 PWINO
KCAV 240335Z AUTO 13011KT 10SM OVC080 07/03 A3008 RMK AO2 PWINO
KCAV 240315Z AUTO 13011KT 10SM OVC080 07/04 A3009 RMK AO2 PWINO
KCAV 240255Z AUTO 12011KT 10SM OVC080 08/03 A3009 RMK AO2 PWINO
KCAV 240235Z AUTO 13011KT 10SM OVC085 07/04 A3009 RMK AO2 PWINO
KCAV 240215Z AUTO 12011KT 10SM OVC090 07/04 A3009 RMK AO2 PWINO
KCAV 240155Z AUTO 11010KT 10SM SCT049 BKN060 OVC085 08/04 A3009 RMK AO2 PWINO
KCAV 240135Z AUTO 12010KT 10SM SCT048 OVC060 08/04 A3009 RMK AO2 PWINO
KCAV 240115Z AUTO 11009KT 10SM FEW049 SCT060 OVC065 08/04 A3009 RMK AO2 PWINO
KCAV 240055Z AUTO 12007KT 9SM FEW044 SCT050 OVC060 07/05 A3010 RMK AO2 PWINO
KCAV 240035Z AUTO 09009KT 10SM FEW043 BKN060 OVC070 07/05 A3009 RMK AO2 PWINO
KCAV 240015Z AUTO 11008KT 10SM BKN060 OVC080 08/04 A3010 RMK AO2 PWINO
KCAV 232355Z AUTO 11007KT 10SM BKN055 BKN065 OVC080 09/04 A3010 RMK AO2 PWINO
KCAV 232335Z AUTO 10009KT 10SM OVC065 09/04 A3010 RMK AO2 PWINO
KCAV 232315Z AUTO 12010KT 10SM BKN070 OVC080 09/04 A3011 RMK AO2 PWINO
KCAV 232255Z AUTO 12010KT 10SM SCT080 10/04 A3010 RMK AO2 PWINO
KCAV 232235Z AUTO 13010KT 10SM CLR 10/04 A3011 RMK AO2 PWINO
KCAV 232215Z AUTO 14010KT 10SM FEW110 10/04 A3012 RMK AO2 PWINO
KCAV 232155Z AUTO 15010KT 10SM CLR 10/04 A3013 RMK AO2 PWINO
KCAV 232135Z AUTO 12008KT 10SM FEW100 10/04 A3012 RMK AO2 PWINO
KCAV 232115Z AUTO 16010KT 10SM SCT100 10/03 A3013 RMK AO2 PWINO
KCAV 232055Z AUTO 14011G17KT 10SM FEW110 11/03 A3013 RMK AO2 PWINO
KCAV 232035Z AUTO 14011KT 10SM FEW110 11/04 A3013 RMK AO2 PWINO
KCAV 232015Z AUTO 15013KT 10SM CLR 12/04 A3013 RMK AO2 PWINO
KCAV 231955Z AUTO 14011KT 10SM CLR 12/04 A3014 RMK AO2 PWINO
KCAV 231935Z AUTO 14009KT 10SM CLR 11/03 A3015 RMK AO2 PWINO
KCAV 231915Z AUTO 17009KT 10SM CLR 12/02 A3016 RMK AO2 PWINO
KCAV 231855Z AUTO 16010KT 10SM CLR 11/02 A3018 RMK AO2 PWINO
KCAV 231835Z AUTO 18012KT 10SM CLR 11/03 A3018 RMK AO2 PWINO
KCAV 231815Z AUTO 17010KT 10SM CLR 11/02 A3019 RMK AO2 PWINO
KCAV 231755Z AUTO 18010KT CLR 11/03 A3019 RMK AO2 PWINO
KCAV 231735Z AUTO 16009KT 10SM CLR 10/03 A3018 RMK AO2 PWINO
KCAV 231715Z AUTO 16009KT 10SM CLR 10/03 A3019 RMK AO2 PWINO
KCAV 231655Z AUTO 17013KT 10SM CLR 09/03 A3020 RMK AO2 PWINO
KCAV 231635Z AUTO 15011KT 10SM CLR 09/03 A3020 RMK AO2 PWINO
KCAV 231615Z AUTO 14010KT 10SM CLR 08/03 A3020 RMK AO2 PWINO
KCAV 231555Z AUTO 15011KT 10SM CLR 07/02 A3021 RMK AO2 PWINO
KCAV 231535Z AUTO 14008KT 10SM CLR 06/02 A3021 RMK AO2 PWINO
KCAV 231515Z AUTO 15009KT 10SM CLR 05/01 A3022 RMK AO2 PWINO
KCAV 231455Z AUTO 14006KT 10SM CLR 04/01 A3021 RMK AO2 PWINO
KCAV 231435Z AUTO 14008KT 10SM CLR 04/00 A3022 RMK AO2 PWINO
KCAV 231415Z AUTO 14008KT 10SM CLR 03/M00 A3022 RMK AO2 PWINO
KCAV 231355Z AUTO 13008KT 10SM CLR 03/M01 A3022 RMK AO2 PWINO